sensor_id;sensor_type;location;lat;lon;timestamp;pressure;altitude;pressure_sealevel;temperature;humidity
65659;BME280;60181;53.258;6.932;2023-07-29T00:00:58;100823.94;;;21.03;69.24
65659;BME280;60181;53.258;6.932;2023-07-29T00:05:08;100819.69;;;21.03;69.11
65659;BME280;60181;53.258;6.932;2023-07-29T00:09:18;100815.64;;;21.02;69.18
65659;BME280;60181;53.258;6.932;2023-07-29T00:13:28;100811.66;;;21.01;69.29
65659;BME280;60181;53.258;6.932;2023-07-29T00:17:38;100807.18;;;21.00;69.27
65659;BME280;60181;53.258;6.932;2023-07-29T00:21:48;100802.03;;;20.99;69.34
65659;BME280;60181;53.258;6.932;2023-07-29T00:25:58;100798.46;;;20.98;69.29
65659;BME280;60181;53.258;6.932;2023-07-29T00:30:08;100795.20;;;20.97;69.56
65659;BME280;60181;53.258;6.932;2023-07-29T00:34:18;100790.99;;;20.96;69.60
65659;BME280;60181;53.258;6.932;2023-07-29T00:38:28;100786.17;;;20.95;69.67
65659;BME280;60181;53.258;6.932;2023-07-29T00:42:38;100781.75;;;20.96;69.58
65659;BME280;60181;53.258;6.932;2023-07-29T00:46:48;100777.17;;;20.96;69.56
65659;BME280;60181;53.258;6.932;2023-07-29T00:50:58;100772.72;;;20.97;69.49
65659;BME280;60181;53.258;6.932;2023-07-29T00:55:08;100767.88;;;20.98;69.69
65659;BME280;60181;53.258;6.932;2023-07-29T00:59:18;100763.56;;;20.99;69.74
65659;BME280;60181;53.258;6.932;2023-07-29T01:03:28;100759.78;;;20.99;69.96
65659;BME280;60181;53.258;6.932;2023-07-29T01:07:46;100756.30;;;21.00;69.86
65659;BME280;60181;53.258;6.932;2023-07-29T01:11:50;100752.77;;;21.01;69.99
65659;BME280;60181;53.258;6.932;2023-07-29T01:16:01;100749.45;;;21.01;69.99
65659;BME280;60181;53.258;6.932;2023-07-29T01:20:09;100745.62;;;21.01;70.04
65659;BME280;60181;53.258;6.932;2023-07-29T01:24:18;100742.36;;;21.01;70.04
65659;BME280;60181;53.258;6.932;2023-07-29T01:28:28;100739.61;;;21.02;70.02
65659;BME280;60181;53.258;6.932;2023-07-29T01:32:47;100737.05;;;21.02;69.98
65659;BME280;60181;53.258;6.932;2023-07-29T01:36:48;100734.78;;;21.02;70.07
65659;BME280;60181;53.258;6.932;2023-07-29T01:40:58;100733.18;;;21.02;70.33
65659;BME280;60181;53.258;6.932;2023-07-29T01:45:08;100730.45;;;21.02;70.71
65659;BME280;60181;53.258;6.932;2023-07-29T01:49:18;100727.55;;;21.02;70.19
65659;BME280;60181;53.258;6.932;2023-07-29T01:53:28;100725.62;;;21.02;69.95
65659;BME280;60181;53.258;6.932;2023-07-29T01:57:38;100723.30;;;21.01;70.18
65659;BME280;60181;53.258;6.932;2023-07-29T02:01:48;100721.07;;;21.01;70.25
65659;BME280;60181;53.258;6.932;2023-07-29T02:05:58;100719.80;;;21.01;70.17
65659;BME280;60181;53.258;6.932;2023-07-29T02:10:08;100719.14;;;21.01;70.52
65659;BME280;60181;53.258;6.932;2023-07-29T02:14:17;100717.25;;;21.00;70.03
65659;BME280;60181;53.258;6.932;2023-07-29T02:18:27;100716.66;;;20.99;70.10
65659;BME280;60181;53.258;6.932;2023-07-29T02:22:37;100716.08;;;20.99;69.95
65659;BME280;60181;53.258;6.932;2023-07-29T02:26:47;100715.77;;;20.99;69.85
65659;BME280;60181;53.258;6.932;2023-07-29T02:35:08;100714.29;;;20.98;69.37
65659;BME280;60181;53.258;6.932;2023-07-29T02:39:17;100713.39;;;20.97;69.25
65659;BME280;60181;53.258;6.932;2023-07-29T02:43:27;100712.61;;;20.97;69.14
65659;BME280;60181;53.258;6.932;2023-07-29T02:47:37;100712.28;;;20.97;69.17
65659;BME280;60181;53.258;6.932;2023-07-29T02:51:47;100711.06;;;20.96;69.13
65659;BME280;60181;53.258;6.932;2023-07-29T02:55:57;100709.13;;;20.96;69.29
65659;BME280;60181;53.258;6.932;2023-07-29T03:00:08;100706.99;;;20.96;68.99
65659;BME280;60181;53.258;6.932;2023-07-29T03:04:17;100705.58;;;20.95;68.92
65659;BME280;60181;53.258;6.932;2023-07-29T03:08:27;100704.68;;;20.95;68.86
65659;BME280;60181;53.258;6.932;2023-07-29T03:12:37;100703.67;;;20.95;68.82
65659;BME280;60181;53.258;6.932;2023-07-29T03:16:47;100702.42;;;20.94;68.82
65659;BME280;60181;53.258;6.932;2023-07-29T03:20:57;100701.12;;;20.93;68.63
65659;BME280;60181;53.258;6.932;2023-07-29T03:25:08;100700.55;;;20.93;68.64
65659;BME280;60181;53.258;6.932;2023-07-29T03:29:17;100699.30;;;20.92;68.72
65659;BME280;60181;53.258;6.932;2023-07-29T03:33:27;100697.56;;;20.92;68.75
65659;BME280;60181;53.258;6.932;2023-07-29T03:37:37;100693.98;;;20.91;68.62
65659;BME280;60181;53.258;6.932;2023-07-29T03:41:48;100691.83;;;20.91;68.69
65659;BME280;60181;53.258;6.932;2023-07-29T03:45:57;100689.75;;;20.90;68.70
65659;BME280;60181;53.258;6.932;2023-07-29T03:50:08;100687.84;;;20.90;68.59
65659;BME280;60181;53.258;6.932;2023-07-29T03:54:17;100685.53;;;20.90;68.40
65659;BME280;60181;53.258;6.932;2023-07-29T03:58:27;100684.36;;;20.89;68.36
65659;BME280;60181;53.258;6.932;2023-07-29T04:02:37;100682.22;;;20.89;68.29
65659;BME280;60181;53.258;6.932;2023-07-29T04:06:47;100680.64;;;20.88;68.46
65659;BME280;60181;53.258;6.932;2023-07-29T04:10:57;100678.34;;;20.87;68.24
65659;BME280;60181;53.258;6.932;2023-07-29T04:15:08;100675.56;;;20.87;68.27
65659;BME280;60181;53.258;6.932;2023-07-29T04:19:17;100674.42;;;20.87;68.07
65659;BME280;60181;53.258;6.932;2023-07-29T04:23:27;100674.33;;;20.87;68.27
65659;BME280;60181;53.258;6.932;2023-07-29T04:27:37;100674.57;;;20.87;68.24
65659;BME280;60181;53.258;6.932;2023-07-29T04:31:47;100674.17;;;20.87;68.31
65659;BME280;60181;53.258;6.932;2023-07-29T04:35:57;100672.34;;;20.87;68.79
65659;BME280;60181;53.258;6.932;2023-07-29T04:40:08;100670.51;;;20.87;68.21
65659;BME280;60181;53.258;6.932;2023-07-29T04:44:17;100669.51;;;20.87;68.17
65659;BME280;60181;53.258;6.932;2023-07-29T04:48:27;100669.01;;;20.87;68.54
65659;BME280;60181;53.258;6.932;2023-07-29T04:52:37;100667.85;;;20.87;68.33
65659;BME280;60181;53.258;6.932;2023-07-29T04:56:47;100667.92;;;20.88;68.26
65659;BME280;60181;53.258;6.932;2023-07-29T05:00:57;100667.66;;;20.88;68.24
65659;BME280;60181;53.258;6.932;2023-07-29T05:05:07;100666.41;;;20.89;68.32
65659;BME280;60181;53.258;6.932;2023-07-29T05:09:18;100666.05;;;20.89;68.12
65659;BME280;60181;53.258;6.932;2023-07-29T05:13:27;100665.12;;;20.90;68.30
65659;BME280;60181;53.258;6.932;2023-07-29T05:17:37;100664.11;;;20.90;68.15
65659;BME280;60181;53.258;6.932;2023-07-29T05:21:47;100663.37;;;20.91;68.34
65659;BME280;60181;53.258;6.932;2023-07-29T05:25:57;100662.28;;;20.91;68.38
65659;BME280;60181;53.258;6.932;2023-07-29T05:30:08;100661.28;;;20.91;68.53
65659;BME280;60181;53.258;6.932;2023-07-29T05:34:17;100661.95;;;20.91;68.67
65659;BME280;60181;53.258;6.932;2023-07-29T05:38:27;100663.19;;;20.91;68.51
65659;BME280;60181;53.258;6.932;2023-07-29T05:42:37;100663.76;;;20.91;68.67
65659;BME280;60181;53.258;6.932;2023-07-29T05:46:47;100664.54;;;20.91;69.02
65659;BME280;60181;53.258;6.932;2023-07-29T05:50:57;100667.04;;;20.91;69.33
65659;BME280;60181;53.258;6.932;2023-07-29T05:55:07;100669.03;;;20.90;69.43
65659;BME280;60181;53.258;6.932;2023-07-29T05:59:17;100670.54;;;20.90;70.06
65659;BME280;60181;53.258;6.932;2023-07-29T06:03:27;100671.80;;;20.89;69.98
65659;BME280;60181;53.258;6.932;2023-07-29T06:07:37;100674.47;;;20.89;69.04
65659;BME280;60181;53.258;6.932;2023-07-29T06:11:47;100676.44;;;20.89;68.66
65659;BME280;60181;53.258;6.932;2023-07-29T06:15:57;100678.88;;;20.90;69.33
65659;BME280;60181;53.258;6.932;2023-07-29T06:20:08;100681.76;;;20.91;69.21
65659;BME280;60181;53.258;6.932;2023-07-29T06:24:17;100684.01;;;20.92;69.09
65659;BME280;60181;53.258;6.932;2023-07-29T06:28:27;100687.17;;;20.92;69.66
65659;BME280;60181;53.258;6.932;2023-07-29T06:32:37;100689.73;;;20.91;69.25
65659;BME280;60181;53.258;6.932;2023-07-29T06:36:47;100692.72;;;20.91;69.16
65659;BME280;60181;53.258;6.932;2023-07-29T06:40:57;100695.83;;;20.92;68.85
65659;BME280;60181;53.258;6.932;2023-07-29T06:45:07;100696.33;;;20.92;69.13
65659;BME280;60181;53.258;6.932;2023-07-29T06:49:17;100696.23;;;20.91;68.91
65659;BME280;60181;53.258;6.932;2023-07-29T06:53:27;100697.16;;;20.92;68.84
65659;BME280;60181;53.258;6.932;2023-07-29T06:57:37;100696.88;;;20.93;68.58
65659;BME280;60181;53.258;6.932;2023-07-29T07:01:47;100696.88;;;20.94;68.39
65659;BME280;60181;53.258;6.932;2023-07-29T07:05:58;100694.59;;;20.95;68.54
65659;BME280;60181;53.258;6.932;2023-07-29T07:10:07;100693.30;;;20.98;68.39
65659;BME280;60181;53.258;6.932;2023-07-29T07:14:17;100694.42;;;21.00;68.43
65659;BME280;60181;53.258;6.932;2023-07-29T07:18:27;100694.62;;;21.03;68.48
65659;BME280;60181;53.258;6.932;2023-07-29T07:22:37;100694.00;;;21.05;68.51
65659;BME280;60181;53.258;6.932;2023-07-29T07:26:47;100693.48;;;21.08;68.44
65659;BME280;60181;53.258;6.932;2023-07-29T07:30:57;100692.66;;;21.10;68.38
65659;BME280;60181;53.258;6.932;2023-07-29T07:35:07;100692.97;;;21.13;68.43
65659;BME280;60181;53.258;6.932;2023-07-29T07:39:17;100690.69;;;21.15;68.33
65659;BME280;60181;53.258;6.932;2023-07-29T07:43:27;100688.56;;;21.18;68.31
65659;BME280;60181;53.258;6.932;2023-07-29T07:47:37;100689.18;;;21.20;68.31
65659;BME280;60181;53.258;6.932;2023-07-29T07:51:47;100692.65;;;21.21;68.32
65659;BME280;60181;53.258;6.932;2023-07-29T07:55:57;100696.23;;;21.22;68.34
65659;BME280;60181;53.258;6.932;2023-07-29T08:00:07;100698.53;;;21.23;68.43
65659;BME280;60181;53.258;6.932;2023-07-29T08:04:17;100699.77;;;21.23;68.43
65659;BME280;60181;53.258;6.932;2023-07-29T08:08:27;100702.01;;;21.24;68.28
65659;BME280;60181;53.258;6.932;2023-07-29T08:12:37;100703.67;;;21.25;68.23
65659;BME280;60181;53.258;6.932;2023-07-29T08:16:47;100703.06;;;21.26;68.28
65659;BME280;60181;53.258;6.932;2023-07-29T08:20:58;100702.11;;;21.29;68.22
65659;BME280;60181;53.258;6.932;2023-07-29T08:25:07;100702.75;;;21.34;67.87
65659;BME280;60181;53.258;6.932;2023-07-29T08:29:17;100705.30;;;21.36;67.98
65659;BME280;60181;53.258;6.932;2023-07-29T08:33:27;100706.81;;;21.39;67.75
65659;BME280;60181;53.258;6.932;2023-07-29T08:37:37;100707.82;;;21.44;67.32
65659;BME280;60181;53.258;6.932;2023-07-29T08:45:57;100707.78;;;21.61;66.67
65659;BME280;60181;53.258;6.932;2023-07-29T08:50:07;100705.13;;;21.65;67.13
65659;BME280;60181;53.258;6.932;2023-07-29T08:54:17;100704.88;;;21.69;67.07
65659;BME280;60181;53.258;6.932;2023-07-29T08:58:27;100705.44;;;21.71;67.12
65659;BME280;60181;53.258;6.932;2023-07-29T09:02:37;100704.44;;;21.71;67.07
65659;BME280;60181;53.258;6.932;2023-07-29T09:06:47;100704.51;;;21.71;67.06
65659;BME280;60181;53.258;6.932;2023-07-29T09:10:57;100703.94;;;21.70;66.95
65659;BME280;60181;53.258;6.932;2023-07-29T09:15:07;100703.23;;;21.72;66.56
65659;BME280;60181;53.258;6.932;2023-07-29T09:19:17;100703.88;;;21.77;66.25
65659;BME280;60181;53.258;6.932;2023-07-29T09:23:27;100704.54;;;21.82;66.31
65659;BME280;60181;53.258;6.932;2023-07-29T09:27:37;100704.41;;;21.84;66.37
65659;BME280;60181;53.258;6.932;2023-07-29T09:31:47;100702.34;;;21.84;66.49
65659;BME280;60181;53.258;6.932;2023-07-29T09:35:57;100699.86;;;21.83;66.58
65659;BME280;60181;53.258;6.932;2023-07-29T09:40:07;100697.80;;;21.81;66.67
65659;BME280;60181;53.258;6.932;2023-07-29T09:44:17;100696.84;;;21.79;66.66
65659;BME280;60181;53.258;6.932;2023-07-29T09:48:27;100696.51;;;21.80;66.33
65659;BME280;60181;53.258;6.932;2023-07-29T09:52:37;100697.85;;;21.80;66.45
65659;BME280;60181;53.258;6.932;2023-07-29T09:56:47;100700.34;;;21.79;66.47
65659;BME280;60181;53.258;6.932;2023-07-29T10:00:57;100701.51;;;21.80;66.27
65659;BME280;60181;53.258;6.932;2023-07-29T10:05:07;100702.89;;;21.81;66.34
65659;BME280;60181;53.258;6.932;2023-07-29T10:09:17;100704.30;;;21.81;66.21
65659;BME280;60181;53.258;6.932;2023-07-29T10:13:27;100703.91;;;21.84;66.04
65659;BME280;60181;53.258;6.932;2023-07-29T10:17:38;100703.05;;;21.85;66.16
65659;BME280;60181;53.258;6.932;2023-07-29T10:21:47;100702.23;;;21.86;66.16
65659;BME280;60181;53.258;6.932;2023-07-29T10:30:07;100699.78;;;21.90;65.89
65659;BME280;60181;53.258;6.932;2023-07-29T10:34:17;100697.58;;;21.92;65.81
65659;BME280;60181;53.258;6.932;2023-07-29T10:38:27;100696.40;;;21.93;65.96
65659;BME280;60181;53.258;6.932;2023-07-29T10:42:37;100694.40;;;21.93;66.08
65659;BME280;60181;53.258;6.932;2023-07-29T10:46:47;100691.85;;;21.95;65.83
65659;BME280;60181;53.258;6.932;2023-07-29T10:55:23;100685.64;;;21.96;66.13
65659;BME280;60181;53.258;6.932;2023-07-29T11:03:27;100681.62;;;21.97;66.00
65659;BME280;60181;53.258;6.932;2023-07-29T11:11:47;100673.95;;;22.01;65.77
65659;BME280;60181;53.258;6.932;2023-07-29T11:15:57;100673.54;;;22.02;65.81
65659;BME280;60181;53.258;6.932;2023-07-29T11:20:07;100672.35;;;22.03;65.79
65659;BME280;60181;53.258;6.932;2023-07-29T11:24:18;100669.97;;;22.05;65.79
65659;BME280;60181;53.258;6.932;2023-07-29T11:28:27;100667.86;;;22.07;65.67
65659;BME280;60181;53.258;6.932;2023-07-29T11:32:37;100667.42;;;22.06;65.98
65659;BME280;60181;53.258;6.932;2023-07-29T11:36:47;100670.04;;;22.05;66.07
65659;BME280;60181;53.258;6.932;2023-07-29T11:41:00;100672.85;;;22.03;66.15
65659;BME280;60181;53.258;6.932;2023-07-29T11:45:07;100676.12;;;22.01;66.11
65659;BME280;60181;53.258;6.932;2023-07-29T11:49:17;100682.34;;;21.99;66.19
65659;BME280;60181;53.258;6.932;2023-07-29T11:53:30;100688.62;;;21.97;66.16
65659;BME280;60181;53.258;6.932;2023-07-29T11:57:37;100695.90;;;21.96;66.12
65659;BME280;60181;53.258;6.932;2023-07-29T12:01:47;100703.11;;;21.96;66.04
65659;BME280;60181;53.258;6.932;2023-07-29T12:05:57;100707.53;;;21.95;65.94
65659;BME280;60181;53.258;6.932;2023-07-29T12:10:07;100709.75;;;21.96;65.82
65659;BME280;60181;53.258;6.932;2023-07-29T12:14:17;100712.16;;;21.97;65.85
65659;BME280;60181;53.258;6.932;2023-07-29T12:18:30;100712.47;;;21.97;65.85
65659;BME280;60181;53.258;6.932;2023-07-29T12:22:37;100711.95;;;21.98;65.71
65659;BME280;60181;53.258;6.932;2023-07-29T12:26:47;100711.81;;;22.01;65.59
65659;BME280;60181;53.258;6.932;2023-07-29T12:30:57;100708.37;;;22.03;65.72
65659;BME280;60181;53.258;6.932;2023-07-29T12:35:09;100704.92;;;22.04;65.84
65659;BME280;60181;53.258;6.932;2023-07-29T12:39:30;100705.57;;;22.05;65.84
65659;BME280;60181;53.258;6.932;2023-07-29T12:43:27;100705.57;;;22.05;66.08
65659;BME280;60181;53.258;6.932;2023-07-29T12:47:37;100705.92;;;22.04;66.16
65659;BME280;60181;53.258;6.932;2023-07-29T12:51:47;100707.76;;;22.04;66.13
65659;BME280;60181;53.258;6.932;2023-07-29T12:55:57;100710.02;;;22.04;66.03
65659;BME280;60181;53.258;6.932;2023-07-29T13:00:07;100714.00;;;22.05;65.93
65659;BME280;60181;53.258;6.932;2023-07-29T13:04:17;100716.25;;;22.05;65.90
65659;BME280;60181;53.258;6.932;2023-07-29T13:08:27;100719.64;;;22.06;65.85
65659;BME280;60181;53.258;6.932;2023-07-29T13:12:37;100722.63;;;22.08;65.64
65659;BME280;60181;53.258;6.932;2023-07-29T13:16:47;100724.03;;;22.08;65.78
65659;BME280;60181;53.258;6.932;2023-07-29T13:20:57;100725.87;;;22.07;66.28
65659;BME280;60181;53.258;6.932;2023-07-29T13:25:07;100729.66;;;22.05;66.55
65659;BME280;60181;53.258;6.932;2023-07-29T13:29:17;100732.76;;;22.05;66.54
65659;BME280;60181;53.258;6.932;2023-07-29T13:33:27;100733.57;;;22.06;66.40
65659;BME280;60181;53.258;6.932;2023-07-29T13:37:37;100735.05;;;22.07;66.56
65659;BME280;60181;53.258;6.932;2023-07-29T13:41:47;100735.03;;;22.08;66.65
65659;BME280;60181;53.258;6.932;2023-07-29T13:45:57;100736.47;;;22.08;66.67
65659;BME280;60181;53.258;6.932;2023-07-29T13:50:07;100737.69;;;22.09;66.56
65659;BME280;60181;53.258;6.932;2023-07-29T13:54:17;100740.00;;;22.10;66.63
65659;BME280;60181;53.258;6.932;2023-07-29T13:58:27;100743.45;;;22.09;66.81
65659;BME280;60181;53.258;6.932;2023-07-29T14:02:37;100746.55;;;22.08;66.68
65659;BME280;60181;53.258;6.932;2023-07-29T14:06:47;100751.20;;;22.09;66.23
65659;BME280;60181;53.258;6.932;2023-07-29T14:10:57;100753.22;;;22.11;66.22
65659;BME280;60181;53.258;6.932;2023-07-29T14:15:07;100753.88;;;22.12;66.42
65659;BME280;60181;53.258;6.932;2023-07-29T14:19:17;100755.16;;;22.11;66.46
65659;BME280;60181;53.258;6.932;2023-07-29T14:23:27;100756.84;;;22.10;66.47
65659;BME280;60181;53.258;6.932;2023-07-29T14:27:37;100760.46;;;22.08;66.45
65659;BME280;60181;53.258;6.932;2023-07-29T14:31:47;100763.84;;;22.06;66.53
65659;BME280;60181;53.258;6.932;2023-07-29T14:35:57;100767.81;;;22.04;66.59
65659;BME280;60181;53.258;6.932;2023-07-29T14:40:07;100770.49;;;22.03;66.69
65659;BME280;60181;53.258;6.932;2023-07-29T14:44:17;100773.08;;;22.03;66.76
65659;BME280;60181;53.258;6.932;2023-07-29T14:48:27;100776.33;;;22.03;66.89
65659;BME280;60181;53.258;6.932;2023-07-29T14:52:37;100778.31;;;22.04;66.93
65659;BME280;60181;53.258;6.932;2023-07-29T14:56:47;100779.18;;;22.06;66.92
65659;BME280;60181;53.258;6.932;2023-07-29T15:00:57;100779.74;;;22.08;67.13
65659;BME280;60181;53.258;6.932;2023-07-29T15:05:07;100780.03;;;22.10;67.44
65659;BME280;60181;53.258;6.932;2023-07-29T15:09:17;100780.75;;;22.11;67.54
65659;BME280;60181;53.258;6.932;2023-07-29T15:13:27;100781.41;;;22.12;67.57
65659;BME280;60181;53.258;6.932;2023-07-29T15:17:37;100781.05;;;22.13;67.52
65659;BME280;60181;53.258;6.932;2023-07-29T15:21:47;100779.69;;;22.14;67.55
65659;BME280;60181;53.258;6.932;2023-07-29T15:25:56;100777.22;;;22.13;67.50
65659;BME280;60181;53.258;6.932;2023-07-29T15:30:07;100775.22;;;22.13;67.41
65659;BME280;60181;53.258;6.932;2023-07-29T15:34:16;100772.74;;;22.12;67.61
65659;BME280;60181;53.258;6.932;2023-07-29T15:38:26;100770.20;;;22.13;67.41
65659;BME280;60181;53.258;6.932;2023-07-29T15:42:36;100768.61;;;22.14;67.26
65659;BME280;60181;53.258;6.932;2023-07-29T15:46:46;100768.33;;;22.15;67.06
65659;BME280;60181;53.258;6.932;2023-07-29T15:50:56;100767.72;;;22.16;67.10
65659;BME280;60181;53.258;6.932;2023-07-29T15:55:07;100765.81;;;22.17;67.06
65659;BME280;60181;53.258;6.932;2023-07-29T15:59:16;100764.36;;;22.17;66.86
65659;BME280;60181;53.258;6.932;2023-07-29T16:03:26;100762.94;;;22.18;66.67
65659;BME280;60181;53.258;6.932;2023-07-29T16:07:36;100762.00;;;22.18;66.72
65659;BME280;60181;53.258;6.932;2023-07-29T16:11:47;100761.35;;;22.18;66.85
65659;BME280;60181;53.258;6.932;2023-07-29T16:15:56;100760.94;;;22.18;66.66
65659;BME280;60181;53.258;6.932;2023-07-29T16:20:07;100759.84;;;22.18;66.47
65659;BME280;60181;53.258;6.932;2023-07-29T16:24:16;100759.34;;;22.19;66.18
65659;BME280;60181;53.258;6.932;2023-07-29T16:28:26;100759.25;;;22.19;65.96
65659;BME280;60181;53.258;6.932;2023-07-29T16:32:36;100758.17;;;22.19;65.76
65659;BME280;60181;53.258;6.932;2023-07-29T16:36:46;100756.73;;;22.19;65.40
65659;BME280;60181;53.258;6.932;2023-07-29T16:40:56;100757.17;;;22.19;65.20
65659;BME280;60181;53.258;6.932;2023-07-29T16:45:07;100757.17;;;22.19;64.89
65659;BME280;60181;53.258;6.932;2023-07-29T16:49:16;100757.09;;;22.18;65.10
65659;BME280;60181;53.258;6.932;2023-07-29T16:53:26;100755.78;;;22.17;64.83
65659;BME280;60181;53.258;6.932;2023-07-29T16:57:36;100754.47;;;22.17;64.72
65659;BME280;60181;53.258;6.932;2023-07-29T17:01:47;100752.97;;;22.17;64.40
65659;BME280;60181;53.258;6.932;2023-07-29T17:05:56;100751.79;;;22.17;64.26
65659;BME280;60181;53.258;6.932;2023-07-29T17:10:07;100751.29;;;22.17;64.21
65659;BME280;60181;53.258;6.932;2023-07-29T17:14:16;100752.73;;;22.16;64.28
65659;BME280;60181;53.258;6.932;2023-07-29T17:18:26;100754.52;;;22.15;64.34
65659;BME280;60181;53.258;6.932;2023-07-29T17:22:36;100756.19;;;22.13;64.34
65659;BME280;60181;53.258;6.932;2023-07-29T17:26:47;100758.91;;;22.11;64.35
65659;BME280;60181;53.258;6.932;2023-07-29T17:30:56;100761.11;;;22.10;64.29
65659;BME280;60181;53.258;6.932;2023-07-29T17:35:07;100763.30;;;22.08;64.23
65659;BME280;60181;53.258;6.932;2023-07-29T17:39:16;100765.91;;;22.07;64.08
65659;BME280;60181;53.258;6.932;2023-07-29T17:43:26;100767.35;;;22.06;64.01
65659;BME280;60181;53.258;6.932;2023-07-29T17:47:36;100768.86;;;22.06;64.08
65659;BME280;60181;53.258;6.932;2023-07-29T17:51:46;100770.26;;;22.06;64.02
65659;BME280;60181;53.258;6.932;2023-07-29T17:55:56;100772.75;;;22.07;64.08
65659;BME280;60181;53.258;6.932;2023-07-29T18:00:07;100774.08;;;22.07;64.34
65659;BME280;60181;53.258;6.932;2023-07-29T18:04:16;100775.67;;;22.06;64.57
65659;BME280;60181;53.258;6.932;2023-07-29T18:08:26;100776.70;;;22.06;64.71
65659;BME280;60181;53.258;6.932;2023-07-29T18:12:36;100777.80;;;22.05;64.74
65659;BME280;60181;53.258;6.932;2023-07-29T18:16:46;100778.49;;;22.04;64.81
65659;BME280;60181;53.258;6.932;2023-07-29T18:20:56;100779.65;;;22.04;64.90
65659;BME280;60181;53.258;6.932;2023-07-29T18:25:07;100781.58;;;22.04;65.00
65659;BME280;60181;53.258;6.932;2023-07-29T18:29:16;100783.60;;;22.03;65.05
65659;BME280;60181;53.258;6.932;2023-07-29T18:33:26;100785.16;;;22.03;65.10
65659;BME280;60181;53.258;6.932;2023-07-29T18:37:36;100787.03;;;22.02;65.19
65659;BME280;60181;53.258;6.932;2023-07-29T18:41:46;100788.51;;;22.02;65.25
65659;BME280;60181;53.258;6.932;2023-07-29T18:45:56;100791.19;;;22.02;65.31
65659;BME280;60181;53.258;6.932;2023-07-29T18:50:07;100793.63;;;22.02;65.39
65659;BME280;60181;53.258;6.932;2023-07-29T18:54:16;100795.45;;;22.02;65.42
65659;BME280;60181;53.258;6.932;2023-07-29T18:58:26;100797.45;;;22.02;65.50
65659;BME280;60181;53.258;6.932;2023-07-29T19:02:36;100800.72;;;22.01;65.56
65659;BME280;60181;53.258;6.932;2023-07-29T19:06:46;100804.06;;;22.01;65.65
65659;BME280;60181;53.258;6.932;2023-07-29T19:10:56;100805.82;;;22.01;65.67
65659;BME280;60181;53.258;6.932;2023-07-29T19:15:06;100808.72;;;22.01;65.75
65659;BME280;60181;53.258;6.932;2023-07-29T19:19:16;100811.75;;;22.00;65.83
65659;BME280;60181;53.258;6.932;2023-07-29T19:23:26;100815.01;;;22.00;65.90
65659;BME280;60181;53.258;6.932;2023-07-29T19:27:36;100818.08;;;22.00;65.92
65659;BME280;60181;53.258;6.932;2023-07-29T19:31:46;100820.10;;;21.99;65.96
65659;BME280;60181;53.258;6.932;2023-07-29T19:35:56;100822.20;;;21.99;65.90
65659;BME280;60181;53.258;6.932;2023-07-29T19:40:07;100824.70;;;21.99;65.76
65659;BME280;60181;53.258;6.932;2023-07-29T19:44:16;100826.36;;;21.98;65.87
65659;BME280;60181;53.258;6.932;2023-07-29T19:48:26;100827.96;;;21.98;65.83
65659;BME280;60181;53.258;6.932;2023-07-29T19:52:36;100828.89;;;21.98;65.85
65659;BME280;60181;53.258;6.932;2023-07-29T19:56:46;100829.38;;;21.97;65.91
65659;BME280;60181;53.258;6.932;2023-07-29T20:00:56;100830.81;;;21.97;65.92
65659;BME280;60181;53.258;6.932;2023-07-29T20:05:06;100830.83;;;21.97;65.99
65659;BME280;60181;53.258;6.932;2023-07-29T20:09:16;100830.90;;;21.96;66.00
65659;BME280;60181;53.258;6.932;2023-07-29T20:13:26;100831.33;;;21.96;66.01
65659;BME280;60181;53.258;6.932;2023-07-29T20:17:36;100831.26;;;21.96;66.01
65659;BME280;60181;53.258;6.932;2023-07-29T20:21:46;100830.85;;;21.96;66.09
65659;BME280;60181;53.258;6.932;2023-07-29T20:25:56;100831.78;;;21.95;66.14
65659;BME280;60181;53.258;6.932;2023-07-29T20:30:07;100832.34;;;21.95;66.11
65659;BME280;60181;53.258;6.932;2023-07-29T20:34:16;100831.87;;;21.95;66.17
65659;BME280;60181;53.258;6.932;2023-07-29T20:38:26;100831.53;;;21.94;66.16
65659;BME280;60181;53.258;6.932;2023-07-29T20:42:36;100832.70;;;21.94;66.16
65659;BME280;60181;53.258;6.932;2023-07-29T20:46:46;100834.03;;;21.94;66.15
65659;BME280;60181;53.258;6.932;2023-07-29T20:50:56;100834.53;;;21.94;66.12
65659;BME280;60181;53.258;6.932;2023-07-29T20:55:06;100833.97;;;21.94;66.28
65659;BME280;60181;53.258;6.932;2023-07-29T20:59:16;100833.61;;;21.95;66.25
65659;BME280;60181;53.258;6.932;2023-07-29T21:03:26;100834.01;;;21.95;66.23
65659;BME280;60181;53.258;6.932;2023-07-29T21:07:36;100835.02;;;21.95;66.22
65659;BME280;60181;53.258;6.932;2023-07-29T21:11:46;100836.19;;;21.95;66.20
65659;BME280;60181;53.258;6.932;2023-07-29T21:15:56;100836.54;;;21.95;66.07
65659;BME280;60181;53.258;6.932;2023-07-29T21:20:07;100837.53;;;21.94;65.94
65659;BME280;60181;53.258;6.932;2023-07-29T21:24:16;100839.06;;;21.94;65.92
65659;BME280;60181;53.258;6.932;2023-07-29T21:28:26;100840.89;;;21.93;65.82
65659;BME280;60181;53.258;6.932;2023-07-29T21:32:36;100842.17;;;21.92;65.78
65659;BME280;60181;53.258;6.932;2023-07-29T21:36:46;100842.52;;;21.91;65.79
65659;BME280;60181;53.258;6.932;2023-07-29T21:40:56;100842.28;;;21.90;65.73
65659;BME280;60181;53.258;6.932;2023-07-29T21:45:07;100842.97;;;21.90;65.73
65659;BME280;60181;53.258;6.932;2023-07-29T21:49:16;100842.80;;;21.89;65.63
65659;BME280;60181;53.258;6.932;2023-07-29T21:53:26;100842.08;;;21.89;65.59
65659;BME280;60181;53.258;6.932;2023-07-29T21:57:36;100842.81;;;21.88;65.53
65659;BME280;60181;53.258;6.932;2023-07-29T22:01:46;100843.77;;;21.88;65.42
65659;BME280;60181;53.258;6.932;2023-07-29T22:06:01;100844.75;;;21.87;65.36
65659;BME280;60181;53.258;6.932;2023-07-29T22:10:06;100845.17;;;21.86;65.37